Tiempo atmosférico en la estación meteorológica de Almadén, Ciudad Real (535 m.)

Fecha
DESCASC
Temp. máxima en grados centígrados (hora)
DESCASC
Temp. mínima en grados centígrados (hora)
DESCASC
Temp. media en grados centígrados
DESCASC
Racha de viento máxima en m/sg (hora)
DESCASC
Velocidad máxima media en intervalos de 10 minutos(hora)
DESCASC
Precipitaciones diarias en mm
DESCASC
Precipitaciones de 00:00 a 06:00 en mm
DESCASC
Precipitaciones de 06:00 a 12:00 en mm
DESCASC
Precipitaciones de 12:00 a 18:00 en mm
DESCASC
Precipitaciones de 18:00 a 24:00 en mm
DESCASC
21-08-2017 38.9 (17:40) 24.5 (08:20) 31.7 7.22 (15:50) 4.17 (17:00) 0 0 0 0 0
20-08-2017 41 (17:40) 23.7 (08:10) 32.4 7.22 (22:10) 4.17 (22:20) 0 0 0 0 0
19-08-2017 40 (15:30) 23.6 (08:10) 31.8 8.61 (15:50) 4.17 (14:00) 0 0 0 0 0
18-08-2017 39.3 (16:20) 23.4 (06:40) 31.3 8.06 (16:00) 5.28 (16:00) 0 0 0 0 0
17-08-2017 38.5 (17:20) 21.2 (00:00) 29.9 7.78 (16:30) 3.33 (15:20) 0 0 0 0 0
16-08-2017 35.6 (17:50) 20.6 (00:00) 28.1 6.39 (16:40) 2.5 (11:00) 0 0 0 0 0
15-08-2017 35.7 (14:00) 22.1 (00:00) 28.9 7.22 (04:00) 4.72 (03:20) 0 0 0 0 0
14-08-2017 38.2 (16:50) 22.3 (08:10) 30.3 8.89 (17:40) 6.11 (04:50) 0 0 0 0 0
13-08-2017 38.1 (18:10) 21.8 (00:00) 29.9 7.22 (17:20) 3.89 (23:10) 0 0 0 0 0
12-08-2017 37 (17:00) 20 (00:00) 28.5 5.83 (18:10) 2.78 (11:30) 0 0 0 0 0
11-08-2017 34.1 (18:10) 18.1 (00:00) 26.1 6.67 (10:50) 3.06 (16:40) 0 0 0 0 0
10-08-2017 31.5 (19:00) 17.4 (00:00) 24.4 11.11 (02:40) 5.83 (02:40) 0 0 0 0 0
09-08-2017 30.8 (16:30) 17.4 (00:00) 24.1 9.17 (15:10) 3.33 (15:10) 0 0 0 0 0
08-08-2017 31.4 (17:10) 16.3 (00:00) 23.8 7.5 (18:00) 3.61 (04:20) 0 0 0 0 0
07-08-2017 38.3 (16:50) 22.9 (00:00) 30.6 8.61 (17:30) 4.17 (17:30) 0 0 0 0 0
06-08-2017 39.4 (17:40) 21.6 (00:00) 30.5 10 (15:00) 4.44 (15:40) 0 0 0 0 0
05-08-2017 40.2 (15:10) 25.9 (00:00) 33.1 8.89 (13:40) 4.17 (13:50) 0 0 0 0 0
04-08-2017 40.8 (17:50) 23.4 (00:00) 32.1 5.83 (12:40) 2.5 (15:20) 0 0 0 0 0
03-08-2017 38.2 (16:30) 21.4 (00:00) 29.8 6.39 (14:50) 2.78 (14:50) 0 0 0 0 0
02-08-2017 36.1 (17:40) 18.5 (00:00) 27.3 7.22 (15:20) 2.78 (17:10) 0 0 0 0 0
01-08-2017 32.9 (17:50) 19.3 (00:00) 26.1 6.67 (00:50) 3.89 (10:30) 0 0 0 0 0
31-07-2017 34.6 (16:40) 19.7 (00:00) 27.1 8.06 (00:40) 2.78 (00:40) 0 0 0 0 0
30-07-2017 38 (17:00) 23.4 (00:00) 30.7 7.22 (14:20) 2.78 (15:30) 0 0 0 0 0
29-07-2017 37.5 (16:20) 21.9 (00:00) 29.7 6.67 (14:50) 2.78 (18:50) 0 0 0 0 0
28-07-2017 38.6 (15:50) 22.9 (00:00) 30.7 8.33 (16:30) 2.78 (16:30) 0 0 0 0 0
27-07-2017 38.9 (16:50) 23.2 (00:00) 31.1 9.72 (17:30) 5 (17:20) 0 0 0 0 0
26-07-2017 38.6 (17:50) 21.7 (00:00) 30.1 6.39 (23:59) 3.61 (23:59) 0 0 0 0 0
25-07-2017 37.1 (17:10) 22.9 (00:00) 30 6.39 (08:00) 3.61 (02:20) 0 0 0 0 0
24-07-2017 35.6 (18:50) 21.7 (00:00) 28.6 7.78 (16:30) 3.06 (19:30) 0 0 0 0 0
23-07-2017 35.4 (17:20) 20.1 (00:00) 27.8 8.61 (16:40) 3.06 (16:40) 0 0 0 0 0

Gráficas

Temp. máximas Temp. mínimas Temp. medias Precipitaciones Rachas de viento máximas Velocidades máximas media en intervalos de 10 minutos

Datos horarios

Fecha y hora oficial Temperatura (ºC) Velocidad del viento (km/h) Dirección del viento Racha (km/h) Dirección de racha Precipitación (mm) Presión (hPa) Tendencia (hPa) Humedad (%)
2017-08-21 23:00:00 32.1 6 Sudoeste 14 Sur 0 -- -- 28
2017-08-21 22:00:00 33.5 4 Sudoeste 14 Oeste 0 -- -- 26
2017-08-21 21:00:00 34.9 3 Oeste 18 Sur 0 -- -- 25
2017-08-21 20:00:00 36.1 9 Sudoeste 17 Sudoeste 0 -- -- 24
2017-08-21 19:00:00 37.7 5 Sudoeste 22 Sudoeste 0 -- -- 24
2017-08-21 18:00:00 38.5 14 Sur 26 Sur 0 -- -- 23
2017-08-21 17:00:00 38.2 15 Sudoeste 25 Sur 0 -- -- 24
2017-08-21 16:00:00 38.1 6 Sudeste 26 Sur 0 -- -- 25
2017-08-21 15:00:00 36.5 9 Sudoeste 24 Sudoeste 0 -- -- 27
2017-08-21 14:00:00 35.2 9 Sur 23 Sur 0 -- -- 30
2017-08-21 13:00:00 33.6 11 Sur 24 Oeste 0 -- -- 36
2017-08-21 12:00:00 30.8 12 Sudoeste 24 Sudoeste 0 -- -- 43
2017-08-21 11:00:00 28.8 13 Sudoeste 19 Sudoeste 0 -- -- 49
2017-08-21 10:00:00 26.6 8 Sudoeste 14 Sur 0 -- -- 50
2017-08-21 09:00:00 25.3 0 Calma 5 Nordeste 0 -- -- 49
2017-08-21 08:00:00 24.7 0 Calma 7 Sudeste 0 -- -- 55
2017-08-21 07:00:00 25.3 5 Sudoeste 8 Sur 0 -- -- 54
2017-08-21 06:00:00 25.4 7 Sudoeste 20 Sur 0 -- -- 51
2017-08-21 05:00:00 26.1 9 Sur 19 Sur 0 -- -- 47
2017-08-21 04:00:00 27.5 14 Sur 19 Sudoeste 0 -- -- 40
2017-08-21 03:00:00 28.8 10 Sur 18 Sur 0 -- -- 37
2017-08-21 02:00:00 30 6 Sur 12 Sur 0 -- -- 33
2017-08-21 01:00:00 30.9 8 Sudoeste 14 Sur 0 -- -- 31
2017-08-21 00:00:00 31.9 4 Sur 18 Sudoeste 0 -- -- 30
2017-08-20 23:00:00 33.3 11 Sudoeste 26 Sur 0 -- -- 28
2017-08-20 22:00:00 34.7 0 Calma 4 Norte 0 -- -- 19
2017-08-20 21:00:00 37.3 0 Calma 5 Oeste 0 -- -- 17
2017-08-20 20:00:00 38.4 2 Oeste 15 Nordeste 0 -- -- 16
2017-08-20 19:00:00 39.9 6 Nordeste 20 Oeste 0 -- -- 16
2017-08-20 18:00:00 41 5 Este 18 Sur 0 -- -- 16
2017-08-20 17:00:00 40 5 Nordeste 17 Nordeste 0 -- -- 17
2017-08-20 16:00:00 40 8 Oeste 18 Sur 0 -- -- 19
2017-08-20 15:00:00 37.8 4 Sudoeste 17 Este 0 -- -- 24
2017-08-20 14:00:00 36.5 8 Este 18 Este 0 -- -- 26
2017-08-20 13:00:00 34.7 7 Este 17 Nordeste 0 -- -- 29
2017-08-20 12:00:00 32.7 7 Este 15 Sudeste 0 -- -- 34
2017-08-20 11:00:00 29.7 7 Este 15 Este 0 -- -- 41
2017-08-20 10:00:00 26.2 5 Este 24 Este 0 -- -- 47
2017-08-20 09:00:00 24.5 9 Este 18 Este 0 -- -- 51
2017-08-20 08:00:00 23.8 3 Este 18 Este 0 -- -- 51
2017-08-20 07:00:00 24.8 6 Este 15 Este 0 -- -- 47
2017-08-20 06:00:00 25.6 4 Nordeste 9 Este 0 -- -- 26
2017-08-20 05:00:00 25.5 0 Calma 8 Nordeste 0 -- -- 23
2017-08-20 04:00:00 26.6 3 Este 8 Nordeste 0 -- -- 21
2017-08-20 03:00:00 28.1 0 Calma 6 Nordeste 0 -- -- 20
2017-08-20 02:00:00 29.3 2 Nordeste 7 Nordeste 0 -- -- 19
2017-08-20 01:00:00 29.9 0 Calma 5 Nordeste 0 -- -- 19
2017-08-20 00:00:00 31.2 0 Calma 5 Norte 0 -- -- 17
2017-08-19 23:00:00 31.5 0 Calma 3 Oeste 0 -- -- 16
2017-08-19 22:00:00 32.7 0 Calma 9 Norte 0 -- -- 17
2017-08-19 21:00:00 34.9 4 Norte 13 Oeste 0 -- -- 17
2017-08-19 20:00:00 35.7 5 Noroeste 19 Noroeste 0 -- -- 21
2017-08-19 19:00:00 37.6 6 Noroeste 18 Norte 0 -- -- 20
2017-08-19 18:00:00 38.7 6 Oeste 23 Oeste 0 -- -- 19
2017-08-19 17:00:00 39.1 6 Oeste 26 Sudoeste 0 -- -- 19
2017-08-19 16:00:00 38.9 10 Sudoeste 31 Oeste 0 -- -- 18
2017-08-19 15:00:00 38.7 13 Sudoeste 28 Sudoeste 0 -- -- 20
2017-08-19 14:00:00 37.6 15 Sudoeste 25 Sudoeste 0 -- -- 18
2017-08-19 13:00:00 35.8 6 Este 14 Sudoeste 0 -- -- 19
2017-08-19 12:00:00 33.8 5 Sur 13 Sur 0 -- -- 26
2017-08-19 11:00:00 30.2 4 Sudoeste 8 Sudoeste 0 -- -- 32
2017-08-19 10:00:00 26.4 3 Norte 8 Oeste 0 -- -- 41
2017-08-19 09:00:00 24.6 2 Norte 7 Norte 0 -- -- 44
2017-08-19 08:00:00 23.7 0 Calma 6 Norte 0 -- -- 43
2017-08-19 07:00:00 24.4 2 Norte 7 Norte 0 -- -- 40
2017-08-19 06:00:00 25.1 2 Noroeste 6 Norte 0 -- -- 37
2017-08-19 05:00:00 26 0 Calma 6 Norte 0 -- -- 35
2017-08-19 04:00:00 26.6 0 Calma 7 Norte 0 -- -- 34
2017-08-19 03:00:00 27.4 3 Norte 11 Noroeste 0 -- -- 33
2017-08-19 02:00:00 29.7 2 Norte 9 Noroeste 0 -- -- 30
2017-08-19 01:00:00 29.6 0 Calma 5 Oeste 0 -- -- 31
2017-08-19 00:00:00 30.1 0 Calma 4 Oeste 0 -- -- 30
2017-08-18 23:00:00 31.3 0 Calma 7 Nordeste 0 -- -- 29
2017-08-18 22:00:00 32.6 3 Noroeste 9 Oeste 0 -- -- 27
2017-08-18 21:00:00 34.6 3 Noroeste 16 Oeste 0 -- -- 23
2017-08-18 20:00:00 35.6 7 Noroeste 21 Oeste 0 -- -- 21
2017-08-18 19:00:00 37.1 8 Oeste 26 Oeste 0 -- -- 22
2017-08-18 18:00:00 38.8 6 Oeste 27 Oeste 0 -- -- 21
2017-08-18 17:00:00 38.4 6 Norte 23 Noroeste 0 -- -- 21
2017-08-18 16:00:00 38.6 19 Sur 29 Sudoeste 0 -- -- 20
2017-08-18 15:00:00 38.6 12 Sur 27 Oeste 0 -- -- 20
2017-08-18 14:00:00 36.3 6 Oeste 22 Sur 0 -- -- 22
2017-08-18 13:00:00 35.2 10 Sur 20 Sur 0 -- -- 23
2017-08-18 12:00:00 32.2 9 Sudoeste 21 Sudoeste 0 -- -- 27
2017-08-18 11:00:00 29.3 8 Sur 16 Sudoeste 0 -- -- 28
2017-08-18 10:00:00 26 5 Sur 13 Sudoeste 0 -- -- 32
2017-08-18 09:00:00 24.7 7 Sur 10 Sur 0 -- -- 32
2017-08-18 08:00:00 23.8 3 Sur 11 Sur 0 -- -- 33
2017-08-18 07:00:00 23.9 4 Sur 12 Sur 0 -- -- 33
2017-08-18 06:00:00 24.3 5 Sur 10 Sudoeste 0 -- -- 33
2017-08-18 05:00:00 25.8 5 Sur 10 Sudoeste 0 -- -- 31
2017-08-18 04:00:00 27.4 2 Este 8 Este 0 -- -- 29
2017-08-18 03:00:00 28.3 3 Sur 5 Sur 0 -- -- 28
2017-08-18 02:00:00 28.9 2 Sudoeste 6 Este 0 -- -- 27
2017-08-18 01:00:00 28.7 3 Sudoeste 8 Oeste 0 -- -- 27
2017-08-18 00:00:00 29.4 0 Calma 2 Noroeste 0 -- -- 26
2017-08-17 23:00:00 30 0 Calma 5 Oeste 0 -- -- 26
2017-08-17 22:00:00 31.5 0 Calma 11 Oeste 0 -- -- 23
2017-08-17 21:00:00 33.9 3 Norte 15 Oeste 0 -- -- 21
2017-08-17 20:00:00 35.6 4 Noroeste 18 Noroeste 0 -- -- 19
2017-08-17 19:00:00 37.4 4 Noroeste 15 Oeste 0 -- -- 18
2017-08-17 18:00:00 37.8 7 Oeste 22 Sudoeste 0 -- -- 17
2017-08-17 17:00:00 37.9 5 Nordeste 28 Sur 0 -- -- 17
2017-08-17 16:00:00 38.2 5 Oeste 24 Sudoeste 0 -- -- 16
2017-08-17 15:00:00 37.1 9 Oeste 22 Sudoeste 0 -- -- 16
2017-08-17 14:00:00 36.8 11 Sudoeste 27 Sudoeste 0 -- -- 16
2017-08-17 13:00:00 35.4 9 Sudoeste 18 Oeste 0 -- -- 17
2017-08-17 12:00:00 32.5 6 Sur 12 Sur 0 -- -- 24
2017-08-17 11:00:00 29.2 5 Sudoeste 9 Sudoeste 0 -- -- 28
2017-08-17 10:00:00 24.7 2 Sudoeste 4 Sudoeste 0 -- -- 34
2017-08-17 09:00:00 22.7 0 Calma 2 Norte 0 -- -- 35
2017-08-17 08:00:00 21.3 0 Calma 4 Norte 0 -- -- 37
2017-08-17 07:00:00 21.5 0 Calma 3 Sur 0 -- -- 35
2017-08-17 06:00:00 22.7 2 Sur 3 Sur 0 -- -- 33
2017-08-17 05:00:00 23.9 0 Calma 3 Nordeste 0 -- -- 31
2017-08-17 04:00:00 25.4 2 Norte 3 Norte 0 -- -- 28
2017-08-17 03:00:00 25.6 0 Calma 7 Sur 0 -- -- 28
2017-08-17 02:00:00 26.4 0 Calma 3 Noroeste 0 -- -- 28
2017-08-17 01:00:00 27.7 0 Calma 5 Nordeste 0 -- -- 26
2017-08-17 00:00:00 28.7 2 Noroeste 5 Oeste 0 -- -- 24
2017-08-16 23:00:00 28.8 0 Calma 7 Oeste 0 -- -- 23
2017-08-16 22:00:00 30 0 Calma 11 Norte 0 -- -- 22
2017-08-16 21:00:00 32 4 Noroeste 17 Oeste 0 -- -- 22
2017-08-16 20:00:00 32.8 6 Oeste 15 Noroeste 0 -- -- 21
2017-08-16 19:00:00 34.6 8 Oeste 19 Oeste 0 -- -- 17
2017-08-16 18:00:00 35.3 7 Oeste 23 Oeste 0 -- -- 17
2017-08-16 17:00:00 34.9 6 Noroeste 23 Oeste 0 -- -- 19
2017-08-16 16:00:00 34.2 6 Noroeste 20 Oeste 0 -- -- 20
2017-08-16 15:00:00 33.6 6 Oeste 20 Oeste 0 -- -- 22
2017-08-16 14:00:00 31.7 4 Noroeste 19 Noroeste 0 -- -- 22
2017-08-16 13:00:00 31.1 4 Noroeste 12 Noroeste 0 -- -- 24
2017-08-16 12:00:00 29.5 4 Sudoeste 12 Sudoeste 0 -- -- 31
2017-08-16 11:00:00 26.3 9 Sur 14 Sur 0 -- -- 37
2017-08-16 10:00:00 23.5 3 Noroeste 5 Norte 0 -- -- 45
2017-08-16 09:00:00 21.3 0 Calma 6 Norte 0 -- -- 50
2017-08-16 08:00:00 20.6 0 Calma 6 Oeste 0 -- -- 50
2017-08-16 07:00:00 21.1 2 Noroeste 8 Noroeste 0 -- -- 49
2017-08-16 06:00:00 22.1 2 Norte 9 Oeste 0 -- -- 45
2017-08-16 05:00:00 22.8 0 Calma 9 Sudoeste 0 -- -- 40
2017-08-16 04:00:00 23.5 3 Noroeste 10 Norte 0 -- -- 36
2017-08-16 03:00:00 24.7 2 Sudoeste 13 Noroeste 0 -- -- 30
2017-08-16 02:00:00 25.6 4 Oeste 11 Oeste 0 -- -- 27
2017-08-16 01:00:00 26.7 3 Noroeste 13 Nordeste 0 -- -- 29
2017-08-16 00:00:00 27.7 5 Noroeste 12 Noroeste 0 -- -- 27
2017-08-15 23:00:00 29.2 3 Noroeste 13 Noroeste 0 -- -- 27
2017-08-15 22:00:00 30.4 3 Noroeste 10 Noroeste 0 -- -- 24
2017-08-15 21:00:00 31.9 3 Noroeste 16 Oeste 0 -- -- 23
2017-08-15 20:00:00 33.3 6 Noroeste 20 Oeste 0 -- -- 21
2017-08-15 19:00:00 34.8 6 Noroeste 23 Oeste 0 -- -- 18
2017-08-15 18:00:00 35.2 7 Noroeste 24 Noroeste 0 -- -- 19
2017-08-15 17:00:00 35.1 6 Noroeste 22 Noroeste 0 -- -- 22
2017-08-15 16:00:00 35.4 9 Oeste 21 Oeste 0 -- -- 21
2017-08-15 15:00:00 34.7 6 Noroeste 18 Noroeste 0 -- -- 23
2017-08-15 14:00:00 35.7 5 Oeste 17 Oeste 0 -- -- 23
2017-08-15 13:00:00 33.9 9 Sudoeste 18 Sur 0 -- -- 26
2017-08-15 12:00:00 30.8 8 Sur 15 Sudoeste 0 -- -- 32
2017-08-15 11:00:00 27.8 9 Sur 15 Sur 0 -- -- 39
2017-08-15 10:00:00 24.6 12 Sur 18 Sur 0 -- -- 51
2017-08-15 09:00:00 22.6 12 Sur 18 Sur 0 -- -- 61
2017-08-15 08:00:00 22.4 0 Calma 11 Sur 0 -- -- 59
2017-08-15 07:00:00 22.9 8 Sur 17 Sudoeste 0 -- -- 56
2017-08-15 06:00:00 24.1 13 Sudoeste 23 Sudoeste 0 -- -- 51
2017-08-15 05:00:00 25 13 Sur 25 Sur 0 -- -- 47
2017-08-15 04:00:00 25.8 15 Sudoeste 26 Sudoeste 0 -- -- 42
2017-08-15 03:00:00 27 15 Sudoeste 22 Sur 0 -- -- 38
2017-08-15 02:00:00 27.9 10 Sur 19 Sudoeste 0 -- -- 36
2017-08-15 01:00:00 28.9 10 Sudoeste 20 Sudoeste 0 -- -- 35
2017-08-15 00:00:00 29.7 10 Sudoeste 14 Sudoeste 0 -- -- 34
2017-08-14 23:00:00 30.5 10 Sudoeste 17 Sudoeste 0 -- -- 33
2017-08-14 22:00:00 32.3 11 Sudoeste 23 Sur 0 -- -- 29
2017-08-14 21:00:00 33.6 8 Sudoeste 32 Sur 0 -- -- 28
2017-08-14 20:00:00 35.2 12 Sudoeste 27 Sudoeste 0 -- -- 27
2017-08-14 19:00:00 36.6 15 Sur 30 Sudoeste 0 -- -- 23
2017-08-14 18:00:00 37.3 16 Sur 32 Sudoeste 0 -- -- 23
2017-08-14 17:00:00 37.5 7 Sur 27 Oeste 0 -- -- 22
2017-08-14 16:00:00 37.4 10 Sudoeste 23 Sur 0 -- -- 22
2017-08-14 15:00:00 36.7 10 Sudoeste 19 Sudoeste 0 -- -- 24
2017-08-14 14:00:00 34.9 6 Este 18 Sudoeste 0 -- -- 26
2017-08-14 13:00:00 33.7 8 Sudoeste 18 Sur 0 -- -- 28
2017-08-14 12:00:00 31.5 8 Sur 18 Sudoeste 0 -- -- 32
2017-08-14 11:00:00 28.6 8 Sudoeste 13 Sudoeste 0 -- -- 37
2017-08-14 10:00:00 26.3 3 Sudeste 9 Nordeste 0 -- -- 42
2017-08-14 09:00:00 23.7 2 Sur 14 Sur 0 -- -- 49
2017-08-14 08:00:00 22.5 10 Sur 23 Sur 0 -- -- 53
2017-08-14 07:00:00 22.9 15 Sur 29 Sur 0 -- -- 51
2017-08-14 06:00:00 23.5 17 Sur 30 Sur 0 -- -- 49
2017-08-14 05:00:00 24.2 20 Sur 31 Sur 0 -- -- 45
2017-08-14 04:00:00 24.7 14 Sudoeste 29 Sur 0 -- -- 38
2017-08-14 03:00:00 25.6 16 Sudoeste 32 Sudeste 0 -- -- 34
2017-08-14 02:00:00 27.6 13 Sudoeste 29 Oeste 0 -- -- 30
2017-08-14 01:00:00 29 17 Sudoeste 29 Sudoeste 0 -- -- 28
2017-08-14 00:00:00 30.3 8 Sudoeste 23 Sudoeste 0 -- -- 28
2017-08-13 23:00:00 30.3 4 Sudoeste 19 Sur 0 -- -- 23
2017-08-13 22:00:00 31.8 0 Calma 4 Oeste 0 -- -- 22
2017-08-13 21:00:00 35.1 0 Calma 7 Sudoeste 0 -- -- 20
2017-08-13 20:00:00 35.1 7 Sur 13 Sur 0 -- -- 19
2017-08-13 19:00:00 37.1 3 Oeste 14 Noroeste 0 -- -- 17
2017-08-13 18:00:00 37.9 3 Oeste 26 Sur 0 -- -- 17
2017-08-13 17:00:00 37.2 6 Oeste 18 Sur 0 -- -- 18
2017-08-13 16:00:00 36.4 9 Sudoeste 23 Sudoeste 0 -- -- 19
2017-08-13 15:00:00 36.1 14 Sudoeste 25 Oeste 0 -- -- 21
2017-08-13 14:00:00 34.5 5 Noroeste 16 Sudoeste 0 -- -- 23
2017-08-13 13:00:00 32.9 8 Sudoeste 19 Sur 0 -- -- 26
2017-08-13 12:00:00 30.4 4 Este 15 Sudoeste 0 -- -- 29
2017-08-13 11:00:00 28.3 5 Sudoeste 12 Sudoeste 0 -- -- 33
2017-08-13 10:00:00 25.8 4 Nordeste 10 Nordeste 0 -- -- 34
2017-08-13 09:00:00 23 3 Sur 7 Sur 0 -- -- 41
2017-08-13 08:00:00 21.9 0 Calma 13 Sur 0 -- -- 43
2017-08-13 07:00:00 22.2 6 Sur 11 Sudoeste 0 -- -- 39
2017-08-13 06:00:00 22.9 8 Sur 19 Sur 0 -- -- 35
2017-08-13 05:00:00 23.6 12 Sur 20 Sur 0 -- -- 32
2017-08-13 04:00:00 24.4 7 Sudoeste 15 Sudoeste 0 -- -- 30
2017-08-13 03:00:00 25.5 0 Calma 8 Sudoeste 0 -- -- 23
2017-08-13 02:00:00 26.1 3 Sur 6 Sudeste 0 -- -- 22
2017-08-13 01:00:00 27.3 4 Este 9 Nordeste 0 -- -- 21
2017-08-13 00:00:00 27.4 2 Sudeste 9 Este 0 -- -- 19
2017-08-12 23:00:00 28.6 0 Calma 4 Norte 0 -- -- 18
2017-08-12 22:00:00 30.1 0 Calma 6 Noroeste 0 -- -- 18
2017-08-12 21:00:00 34.5 3 Norte 7 Nordeste 0 -- -- 14
2017-08-12 20:00:00 34.3 2 Noroeste 12 Este 0 -- -- 15
2017-08-12 19:00:00 35.5 4 Norte 21 Este 0 -- -- 14
2017-08-12 18:00:00 35.6 8 Norte 20 Nordeste 0 -- -- 15
2017-08-12 17:00:00 37 6 Sudoeste 21 Nordeste 0 -- -- 14
2017-08-12 16:00:00 35.1 5 Oeste 20 Noroeste 0 -- -- 15
2017-08-12 15:00:00 33.9 4 Norte 17 Este 0 -- -- 18
2017-08-12 14:00:00 33.3 6 Nordeste 15 Sur 0 -- -- 19
2017-08-12 13:00:00 31.7 6 Este 16 Nordeste 0 -- -- 21
2017-08-12 12:00:00 28.7 6 Nordeste 17 Este 0 -- -- 25
2017-08-12 11:00:00 26.3 6 Este 19 Nordeste 0 -- -- 32
2017-08-12 10:00:00 23.3 4 Este 12 Este 0 -- -- 36
2017-08-12 09:00:00 20.5 3 Norte 12 Nordeste 0 -- -- 33
2017-08-12 08:00:00 20.2 0 Calma 8 Este 0 -- -- 26
2017-08-12 07:00:00 21.2 3 Oeste 13 Este 0 -- -- 23
2017-08-12 06:00:00 22 3 Este 16 Este 0 -- -- 22
2017-08-12 05:00:00 22.7 3 Norte 13 Este 0 -- -- 20
2017-08-12 04:00:00 23 3 Sudeste 7 Este 0 -- -- 20
2017-08-12 03:00:00 23.6 2 Este 9 Este 0 -- -- 21
2017-08-12 02:00:00 25 5 Este 15 Este 0 -- -- 19
2017-08-12 01:00:00 25.7 6 Este 17 Este 0 -- -- 20
2017-08-12 00:00:00 26.3 8 Nordeste 16 Nordeste 0 -- -- 23
2017-08-11 23:00:00 27.7 5 Nordeste 12 Nordeste 0 -- -- 22
2017-08-11 22:00:00 28.9 2 Noroeste 9 Oeste 0 -- -- 22
2017-08-11 21:00:00 32.4 2 Noroeste 17 Nordeste 0 -- -- 19
2017-08-11 20:00:00 32 9 Este 17 Este 0 -- -- 19
2017-08-11 19:00:00 33.5 6 Este 20 Nordeste 0 -- -- 17
2017-08-11 18:00:00 33.6 6 Nordeste 16 Nordeste 0 -- -- 16
2017-08-11 17:00:00 33.6 5 Noroeste 21 Norte 0 -- -- 18
2017-08-11 16:00:00 32.7 3 Sudoeste 22 Nordeste 0 -- -- 18
2017-08-11 15:00:00 30.8 10 Nordeste 20 Nordeste 0 -- -- 20
2017-08-11 14:00:00 31.4 6 Sudeste 19 Este 0 -- -- 21
2017-08-11 13:00:00 29.4 5 Este 21 Este 0 -- -- 24
2017-08-11 12:00:00 27.6 9 Este 20 Este 0 -- -- 31
2017-08-11 11:00:00 24.6 6 Este 24 Sudeste 0 -- -- 40
2017-08-11 10:00:00 22.2 6 Este 16 Este 0 -- -- 46
2017-08-11 09:00:00 19.4 3 Este 15 Este 0 -- -- 43
2017-08-11 08:00:00 18.1 6 Este 17 Este 0 -- -- 39
2017-08-11 07:00:00 18.6 4 Este 14 Nordeste 0 -- -- 32
2017-08-11 06:00:00 19.3 0 Calma 12 Nordeste 0 -- -- 30
2017-08-11 05:00:00 20 2 Sur 10 Este 0 -- -- 27
2017-08-11 04:00:00 21.1 5 Este 12 Este 0 -- -- 26
2017-08-11 03:00:00 21.6 2 Este 12 Este 0 -- -- 25
2017-08-11 02:00:00 22.4 4 Este 16 Este 0 -- -- 23
2017-08-11 01:00:00 23.1 9 Este 18 Este 0 -- -- 21
2017-08-11 00:00:00 23.6 9 Nordeste 17 Este 0 -- -- 19
2017-08-10 23:00:00 24.8 8 Nordeste 17 Nordeste 0 -- -- 17
2017-08-10 22:00:00 26.8 11 Nordeste 21 Nordeste 0 -- -- 15
2017-08-10 21:00:00 29.6 9 Nordeste 16 Norte 0 -- -- 14
2017-08-10 20:00:00 30.3 6 Nordeste 17 Nordeste 0 -- -- 14
2017-08-10 19:00:00 31.5 5 Nordeste 18 Nordeste 0 -- -- 15
2017-08-10 18:00:00 30.9 8 Nordeste 27 Nordeste 0 -- -- 16
2017-08-10 17:00:00 30.2 11 Nordeste 21 Nordeste 0 -- -- 18
2017-08-10 16:00:00 29.8 9 Nordeste 25 Nordeste 0 -- -- 21
2017-08-10 15:00:00 28.2 10 Nordeste 27 Nordeste 0 -- -- 24
2017-08-10 14:00:00 27.1 9 Nordeste 26 Este 0 -- -- 25
2017-08-10 13:00:00 25.6 11 Este 29 Nordeste 0 -- -- 25
2017-08-10 12:00:00 23.6 15 Nordeste 35 Este 0 -- -- 28
2017-08-10 11:00:00 21.9 17 Nordeste 36 Nordeste 0 -- -- 27
2017-08-10 10:00:00 20.2 16 Nordeste 32 Nordeste 0 -- -- 31
2017-08-10 09:00:00 18.5 13 Nordeste 30 Este 0 -- -- 37
2017-08-10 08:00:00 17.4 11 Este 24 Nordeste 0 -- -- 41
2017-08-10 07:00:00 17.9 10 Nordeste 26 Nordeste 0 -- -- 39
2017-08-10 06:00:00 18.5 12 Este 31 Nordeste 0 -- -- 39
2017-08-10 05:00:00 19 15 Este 35 Este 0 -- -- 38
2017-08-10 04:00:00 19.3 16 Este 36 Este 0 -- -- 41
2017-08-10 03:00:00 20.2 15 Nordeste 40 Este 0 -- -- 41
2017-08-10 02:00:00 21.7 19 Este 37 Nordeste 0 -- -- 38
2017-08-10 01:00:00 22.9 10 Nordeste 20 Este 0 -- -- 34
2017-08-10 00:00:00 23.9 3 Noroeste 10 Oeste 0 -- -- 28
2017-08-09 23:00:00 25.1 0 Calma 7 Oeste 0 -- -- 27
2017-08-09 22:00:00 25.7 2 Noroeste 11 Oeste 0 -- -- 25
2017-08-09 21:00:00 27.8 6 Oeste 18 Noroeste 0 -- -- 22
2017-08-09 20:00:00 28.1 5 Noroeste 23 Noroeste 0 -- -- 23
2017-08-09 19:00:00 29.8 6 Oeste 24 Norte 0 -- -- 23
2017-08-09 18:00:00 30 8 Noroeste 25 Oeste 0 -- -- 21
2017-08-09 17:00:00 30.2 8 Noroeste 23 Oeste 0 -- -- 21
2017-08-09 16:00:00 30.3 8 Oeste 33 Oeste 0 -- -- 21
2017-08-09 15:00:00 29.2 7 Oeste 26 Oeste 0 -- -- 23
2017-08-09 14:00:00 29.1 8 Oeste 22 Oeste 0 -- -- 24
2017-08-09 13:00:00 27.9 8 Oeste 18 Oeste 0 -- -- 26
2017-08-09 12:00:00 25 4 Noroeste 12 Noroeste 0 -- -- 35
2017-08-09 11:00:00 22.1 4 Noroeste 13 Oeste 0 -- -- 42
2017-08-09 10:00:00 20.3 4 Oeste 10 Oeste 0 -- -- 49
2017-08-09 09:00:00 18.5 2 Norte 12 Noroeste 0 -- -- 54
2017-08-09 08:00:00 17.4 4 Noroeste 13 Noroeste 0 -- -- 57
2017-08-09 07:00:00 17.8 3 Noroeste 9 Oeste 0 -- -- 54
2017-08-09 06:00:00 18.4 3 Sudoeste 10 Oeste 0 -- -- 50
2017-08-09 05:00:00 19.8 5 Noroeste 21 Oeste 0 -- -- 44
2017-08-09 04:00:00 20.4 2 Norte 19 Oeste 0 -- -- 40
2017-08-09 03:00:00 21.9 6 Noroeste 16 Oeste 0 -- -- 33
2017-08-09 02:00:00 22.9 2 Norte 6 Oeste 0 -- -- 27
2017-08-09 01:00:00 23.3 2 Oeste 4 Oeste 0 -- -- 25
2017-08-09 00:00:00 24.8 2 Noroeste 12 Oeste 0 -- -- 22
2017-08-08 23:00:00 25.3 2 Noroeste 9 Noroeste 0 -- -- 19
2017-08-08 22:00:00 26.2 4 Oeste 12 Norte 0 -- -- 18
2017-08-08 21:00:00 29.1 4 Noroeste 21 Oeste 0 -- -- 15
2017-08-08 20:00:00 29 6 Oeste 22 Oeste 0 -- -- 15
2017-08-08 19:00:00 30.5 10 Oeste 27 Noroeste 0 -- -- 15
2017-08-08 18:00:00 31.3 11 Oeste 27 Sudoeste 0 -- -- 15
2017-08-08 17:00:00 30.8 8 Oeste 27 Oeste 0 -- -- 16
2017-08-08 16:00:00 29.9 11 Oeste 25 Sudoeste 0 -- -- 14
2017-08-08 15:00:00 28.4 7 Noroeste 25 Oeste 0 -- -- 19
2017-08-08 14:00:00 27.7 11 Oeste 22 Oeste 0 -- -- 24
2017-08-08 13:00:00 26.5 6 Oeste 18 Oeste 0 -- -- 30
2017-08-08 12:00:00 24.5 6 Oeste 14 Oeste 0 -- -- 39
2017-08-08 11:00:00 21.9 4 Oeste 13 Oeste 0 -- -- 49
2017-08-08 10:00:00 19.1 4 Oeste 16 Oeste 0 -- -- 57
2017-08-08 09:00:00 17.5 3 Noroeste 10 Norte 0 -- -- 61
2017-08-08 08:00:00 16.4 4 Noroeste 15 Oeste 0 -- -- 63
2017-08-08 07:00:00 17 5 Noroeste 18 Oeste 0 -- -- 60
2017-08-08 06:00:00 17.9 5 Noroeste 20 Noroeste 0 -- -- 55
2017-08-08 05:00:00 19 8 Oeste 26 Noroeste 0 -- -- 51
2017-08-08 04:00:00 21 8 Oeste 18 Oeste 0 -- -- 43
2017-08-08 03:00:00 22.6 5 Noroeste 27 Noroeste 0 -- -- 36
2017-08-08 02:00:00 24.1 8 Noroeste 23 Noroeste 0 -- -- 29
2017-08-08 01:00:00 25.6 7 Noroeste 21 Noroeste 0 -- -- 26
2017-08-08 00:00:00 26.9 5 Oeste 18 Oeste 0 -- -- 24
2017-08-07 23:00:00 28.6 6 Oeste 19 Oeste 0 -- -- 21
2017-08-07 22:00:00 30.1 5 Noroeste 22 Oeste 0 -- -- 18
2017-08-07 21:00:00 31.9 5 Noroeste 20 Noroeste 0 -- -- 14
2017-08-07 20:00:00 34.1 8 Noroeste 26 Oeste 0 -- -- 11
2017-08-07 19:00:00 36.5 8 Noroeste 22 Noroeste 0 -- -- 10
2017-08-07 18:00:00 36.9 14 Oeste 31 Oeste 0 -- -- 10
2017-08-07 17:00:00 38.3 11 Oeste 27 Oeste 0 -- -- 9
2017-08-07 16:00:00 37.4 5 Noroeste 21 Noroeste 0 -- -- 10
2017-08-07 15:00:00 36.6 8 Oeste 26 Sur 0 -- -- 12
2017-08-07 14:00:00 35.8 6 Sudoeste 30 Sur 0 -- -- 14
2017-08-07 13:00:00 34.7 13 Sur 26 Sudoeste 0 -- -- 14
2017-08-07 12:00:00 32.3 7 Oeste 15 Sudoeste 0 -- -- 21
2017-08-07 11:00:00 29.7 11 Sur 21 Sur 0 -- -- 27
2017-08-07 10:00:00 26.4 4 Sur 14 Sudoeste 0 -- -- 30
2017-08-07 09:00:00 24 5 Sur 11 Sur 0 -- -- 28
2017-08-07 08:00:00 22.9 2 Sur 5 Sudoeste 0 -- -- 28
2017-08-07 07:00:00 24.1 2 Nordeste 8 Sur 0 -- -- 25
2017-08-07 06:00:00 24.9 2 Norte 6 Norte 0 -- -- 25
2017-08-07 05:00:00 25.5 2 Sudoeste 6 Sur 0 -- -- 23
2017-08-07 04:00:00 25.9 5 Sudoeste 13 Sudoeste 0 -- -- 22
2017-08-07 03:00:00 27.2 0 Calma 15 Sudoeste 0 -- -- 22
2017-08-07 02:00:00 27.8 6 Sudoeste 12 Sudoeste 0 -- -- 18
2017-08-07 01:00:00 28.3 4 Sudoeste 6 Sur 0 -- -- 16
2017-08-07 00:00:00 29.8 3 Noroeste 10 Noroeste 0 -- -- 14
2017-08-06 23:00:00 30.5 3 Noroeste 10 Oeste 0 -- -- 14
2017-08-06 22:00:00 31.6 2 Noroeste 13 Oeste 0 -- -- 14
2017-08-06 21:00:00 34.4 4 Noroeste 16 Noroeste 0 -- -- 14
2017-08-06 20:00:00 35.3 6 Noroeste 24 Noroeste 0 -- -- 15
2017-08-06 19:00:00 37.2 6 Noroeste 20 Oeste 0 -- -- 18
2017-08-06 18:00:00 38.5 8 Oeste 20 Noroeste 0 -- -- 18
2017-08-06 17:00:00 38.5 8 Oeste 27 Sudoeste 0 -- -- 17
2017-08-06 16:00:00 37.5 10 Oeste 29 Sudoeste 0 -- -- 16
2017-08-06 15:00:00 36.9 14 Oeste 36 Oeste 0 -- -- 16
2017-08-06 14:00:00 36.4 13 Sudoeste 23 Sudoeste 0 -- -- 17
2017-08-06 13:00:00 34.3 8 Sur 22 Sudoeste 0 -- -- 21
2017-08-06 12:00:00 30.7 10 Sur 20 Sudoeste 0 -- -- 27
2017-08-06 11:00:00 27.5 8 Sur 15 Sur 0 -- -- 36
2017-08-06 10:00:00 24.6 5 Sur 10 Sur 0 -- -- 45
2017-08-06 09:00:00 23.2 2 Sudoeste 5 Nordeste 0 -- -- 49
2017-08-06 08:00:00 21.7 0 Calma 6 Noroeste 0 -- -- 52
2017-08-06 07:00:00 23 3 Noroeste 12 Noroeste 0 -- -- 49
2017-08-06 06:00:00 22.9 0 Calma 5 Noroeste 0 -- -- 48
2017-08-06 05:00:00 23.8 0 Calma 5 Norte 0 -- -- 45
2017-08-06 04:00:00 24.8 0 Calma 7 Oeste 0 -- -- 42
2017-08-06 03:00:00 26.2 2 Noroeste 15 Norte 0 -- -- 38
2017-08-06 02:00:00 27.3 6 Norte 19 Noroeste 0 -- -- 35
2017-08-06 01:00:00 28.6 4 Noroeste 33 Noroeste 0 -- -- 28
2017-08-06 00:00:00 30.9 10 Noroeste 26 Noroeste 0 -- -- 24
2017-08-05 23:00:00 32.2 7 Noroeste 20 Oeste 0 -- -- 26
2017-08-05 22:00:00 33.5 4 Noroeste 17 Noroeste 0 -- -- 23
2017-08-05 21:00:00 35.9 6 Noroeste 22 Noroeste 0 -- -- 20
2017-08-05 20:00:00 36.6 6 Noroeste 23 Oeste 0 -- -- 21
2017-08-05 19:00:00 38.1 10 Noroeste 26 Oeste 0 -- -- 20
2017-08-05 18:00:00 38.8 13 Oeste 30 Noroeste 0 -- -- 20
2017-08-05 17:00:00 39.9 9 Oeste 28 Oeste 0 -- -- 20
2017-08-05 16:00:00 39.8 8 Noroeste 22 Noroeste 0 -- -- 21
2017-08-05 15:00:00 39.9 9 Oeste 29 Oeste 0 -- -- 21
2017-08-05 14:00:00 38.5 14 Oeste 32 Sur 0 -- -- 22
2017-08-05 13:00:00 37.1 8 Sudoeste 23 Sur 0 -- -- 24
2017-08-05 12:00:00 35.4 7 Sur 16 Sudoeste 0 -- -- 27
2017-08-05 11:00:00 32.6 8 Sur 12 Sur 0 -- -- 32
2017-08-05 10:00:00 29.7 2 Noroeste 7 Oeste 0 -- -- 36
2017-08-05 09:00:00 27.3 0 Calma 4 Oeste 0 -- -- 41
2017-08-05 08:00:00 26 0 Calma 4 Nordeste 0 -- -- 42
2017-08-05 07:00:00 26.3 0 Calma 8 Noroeste 0 -- -- 42
2017-08-05 06:00:00 26.6 3 Sudeste 8 Sudoeste 0 -- -- 40
2017-08-05 05:00:00 28 0 Calma 8 Norte 0 -- -- 39
2017-08-05 04:00:00 29.3 4 Norte 7 Norte 0 -- -- 36
2017-08-05 03:00:00 30.2 0 Calma 4 Noroeste 0 -- -- 32
2017-08-05 02:00:00 31 0 Calma 5 Norte 0 -- -- 31
2017-08-05 01:00:00 31.9 0 Calma 7 Noroeste 0 -- -- 30
2017-08-05 00:00:00 33.1 0 Calma 6 Noroeste 0 -- -- 27
2017-08-04 23:00:00 33.8 3 Noroeste 8 Noroeste 0 -- -- 26
2017-08-04 22:00:00 34.8 3 Noroeste 10 Noroeste 0 -- -- 25
2017-08-04 21:00:00 37.7 5 Oeste 17 Oeste 0 -- -- 20
2017-08-04 20:00:00 38.1 6 Oeste 18 Oeste 0 -- -- 20
2017-08-04 19:00:00 40.1 4 Noroeste 21 Oeste 0 -- -- 20
2017-08-04 18:00:00 40.6 5 Oeste 16 Noroeste 0 -- -- 20
2017-08-04 17:00:00 39.9 9 Oeste 21 Nordeste 0 -- -- 21
2017-08-04 16:00:00 39.2 6 Norte 20 Sudoeste 0 -- -- 21
2017-08-04 15:00:00 38.3 5 Noroeste 15 Norte 0 -- -- 24
2017-08-04 14:00:00 37.4 3 Noroeste 13 Oeste 0 -- -- 25
2017-08-04 13:00:00 36.3 5 Sudoeste 21 Sudoeste 0 -- -- 28
2017-08-04 12:00:00 33.9 4 Nordeste 9 Este 0 -- -- 33
2017-08-04 11:00:00 31.1 3 Nordeste 7 Oeste 0 -- -- 37
2017-08-04 10:00:00 28.2 3 Oeste 8 Oeste 0 -- -- 41
2017-08-04 09:00:00 25.9 0 Calma 4 Norte 0 -- -- 43
2017-08-04 08:00:00 24.1 0 Calma 4 Nordeste 0 -- -- 46
2017-08-04 07:00:00 23.4 0 Calma 2 Sudeste 0 -- -- 38
2017-08-04 06:00:00 25 0 Calma 4 Nordeste 0 -- -- 34
2017-08-04 05:00:00 25.7 0 Calma 4 Noroeste 0 -- -- 32
2017-08-04 04:00:00 26.6 0 Calma 2 Nordeste 0 -- -- 30
2017-08-04 03:00:00 27.3 0 Calma 2 Este 0 -- -- 28
2017-08-04 02:00:00 28.4 0 Calma 3 Noroeste 0 -- -- 28
2017-08-04 01:00:00 29.4 2 Norte 5 Noroeste 0 -- -- 24
2017-08-04 00:00:00 30.4 0 Calma 7 Noroeste 0 -- -- 23
2017-08-03 23:00:00 31.2 2 Norte 8 Noroeste 0 -- -- 21
2017-08-03 22:00:00 32 0 Calma 14 Oeste 0 -- -- 19
2017-08-03 21:00:00 34.7 6 Oeste 18 Oeste 0 -- -- 15
2017-08-03 20:00:00 35.5 6 Oeste 20 Oeste 0 -- -- 14
2017-08-03 19:00:00 37.7 7 Oeste 19 Oeste 0 -- -- 13
2017-08-03 18:00:00 38 5 Oeste 21 Oeste 0 -- -- 13
2017-08-03 17:00:00 37.5 7 Oeste 21 Oeste 0 -- -- 12
2017-08-03 16:00:00 36.8 7 Noroeste 22 Noroeste 0 -- -- 14
2017-08-03 15:00:00 36.8 8 Oeste 23 Oeste 0 -- -- 15
2017-08-03 14:00:00 35.9 6 Oeste 19 Oeste 0 -- -- 15
2017-08-03 13:00:00 34.8 5 Noroeste 11 Oeste 0 -- -- 18
2017-08-03 12:00:00 32.7 4 Oeste 8 Sudoeste 0 -- -- 20
2017-08-03 11:00:00 29 4 Sudoeste 10 Sur 0 -- -- 28
2017-08-03 10:00:00 25.9 6 Sur 9 Sur 0 -- -- 32
2017-08-03 09:00:00 23.3 2 Norte 6 Oeste 0 -- -- 36
2017-08-03 08:00:00 21.5 2 Noroeste 9 Norte 0 -- -- 38
2017-08-03 07:00:00 21.9 0 Calma 8 Norte 0 -- -- 35
2017-08-03 06:00:00 23.1 3 Norte 8 Norte 0 -- -- 34
2017-08-03 05:00:00 24 0 Calma 6 Nordeste 0 -- -- 30
2017-08-03 04:00:00 24.5 0 Calma 4 Oeste 0 -- -- 31
2017-08-03 03:00:00 25.2 0 Calma 3 Oeste 0 -- -- 31
2017-08-03 02:00:00 26.1 0 Calma 4 Oeste 0 -- -- 29
2017-08-03 01:00:00 26.8 0 Calma 5 Noroeste 0 -- -- 27
2017-08-03 00:00:00 27.7 2 Noroeste 8 Oeste 0 -- -- 26
2017-08-02 23:00:00 28.7 3 Noroeste 8 Sudoeste 0 -- -- 24
2017-08-02 22:00:00 30.1 3 Noroeste 13 Noroeste 0 -- -- 22
2017-08-02 21:00:00 33 5 Noroeste 15 Noroeste 0 -- -- 19
2017-08-02 20:00:00 33.5 9 Noroeste 21 Oeste 0 -- -- 18
2017-08-02 19:00:00 35.5 8 Oeste 20 Oeste 0 -- -- 18
2017-08-02 18:00:00 36.1 7 Sudoeste 19 Sudoeste 0 -- -- 17
2017-08-02 17:00:00 36 7 Oeste 18 Norte 0 -- -- 18
2017-08-02 16:00:00 35.7 8 Oeste 26 Oeste 0 -- -- 19
2017-08-02 15:00:00 34.1 5 Noroeste 18 Noroeste 0 -- -- 21
2017-08-02 14:00:00 32.7 9 Norte 22 Norte 0 -- -- 23
2017-08-02 13:00:00 32.2 4 Oeste 11 Norte 0 -- -- 24
2017-08-02 12:00:00 29.4 4 Noroeste 12 Norte 0 -- -- 27
2017-08-02 11:00:00 26.1 4 Norte 9 Nordeste 0 -- -- 32
2017-08-02 10:00:00 23.3 3 Este 7 Nordeste 0 -- -- 39
2017-08-02 09:00:00 20.4 2 Norte 4 Norte 0 -- -- 47
2017-08-02 08:00:00 18.5 0 Calma 6 Norte 0 -- -- 51
2017-08-02 07:00:00 19.2 2 Noroeste 7 Noroeste 0 -- -- 47
2017-08-02 06:00:00 19.9 3 Norte 8 Noroeste 0 -- -- 45
2017-08-02 05:00:00 20.6 3 Norte 7 Norte 0 -- -- 42
2017-08-02 04:00:00 21.5 3 Norte 8 Norte 0 -- -- 39
2017-08-02 03:00:00 22.3 3 Noroeste 8 Oeste 0 -- -- 36
2017-08-02 02:00:00 23.6 2 Noroeste 11 Oeste 0 -- -- 35
2017-08-02 01:00:00 24.4 3 Noroeste 9 Oeste 0 -- -- 35
2017-08-02 00:00:00 25.4 3 Noroeste 10 Oeste 0 -- -- 36
2017-08-01 23:00:00 26.1 3 Noroeste 11 Oeste 0 -- -- 33
2017-08-01 22:00:00 27.2 2 Noroeste 14 Oeste 0 -- -- 29
2017-08-01 21:00:00 29.9 4 Noroeste 21 Oeste 0 -- -- 25
2017-08-01 20:00:00 30.4 5 Noroeste 18 Noroeste 0 -- -- 23
2017-08-01 19:00:00 31.5 5 Oeste 17 Oeste 0 -- -- 23
2017-08-01 18:00:00 31.8 6 Noroeste 17 Oeste 0 -- -- 24
2017-08-01 17:00:00 32 8 Oeste 22 Oeste 0 -- -- 24
2017-08-01 16:00:00 30.9 7 Noroeste 21 Oeste 0 -- -- 26
2017-08-01 15:00:00 29.2 5 Oeste 16 Oeste 0 -- -- 26
2017-08-01 14:00:00 26.4 4 Oeste 15 Oeste 0 -- -- 38
2017-08-01 13:00:00 25.5 4 Noroeste 14 Sudoeste 0 -- -- 38
2017-08-01 12:00:00 23.1 3 Noroeste 19 Oeste 0 -- -- 45
2017-08-01 11:00:00 22.5 4 Sur 23 Sudoeste 0 -- -- 47
2017-08-01 10:00:00 20.6 3 Norte 12 Oeste 0 -- -- 53
2017-08-01 09:00:00 19.9 4 Oeste 14 Noroeste 0 -- -- 56
2017-08-01 08:00:00 19.3 2 Norte 10 Oeste 0 -- -- 54
2017-08-01 07:00:00 19.5 0 Calma 8 Noroeste 0 -- -- 52
2017-08-01 06:00:00 19.6 2 Noroeste 10 Noroeste 0 -- -- 51
2017-08-01 05:00:00 19.9 0 Calma 9 Sudoeste 0 -- -- 49
2017-08-01 04:00:00 20.6 3 Norte 10 Noroeste 0 -- -- 48
2017-08-01 03:00:00 21.2 3 Noroeste 17 Noroeste 0 -- -- 47
2017-08-01 02:00:00 22.1 3 Noroeste 20 Noroeste 0 -- -- 44
2017-08-01 01:00:00 22.7 6 Noroeste 24 Noroeste 0 -- -- 41
2017-08-01 00:00:00 25.2 5 Oeste 14 Oeste 0 -- -- 30
2017-07-31 23:00:00 26.5 4 Norte 12 Noroeste 0 -- -- 25
2017-07-31 22:00:00 27.3 3 Noroeste 14 Oeste 0 -- -- 23
2017-07-31 21:00:00 29 7 Noroeste 22 Norte 0 -- -- 19
2017-07-31 20:00:00 32.3 8 Noroeste 21 Oeste 0 -- -- 17
2017-07-31 19:00:00 34.1 6 Noroeste 23 Norte 0 -- -- 17
2017-07-31 18:00:00 34.3 6 Noroeste 23 Norte 0 -- -- 19
2017-07-31 17:00:00 34.5 7 Oeste 22 Oeste 0 -- -- 20
2017-07-31 16:00:00 33.3 8 Noroeste 26 Oeste 0 -- -- 21
2017-07-31 15:00:00 33.1 6 Noroeste 21 Oeste 0 -- -- 23
2017-07-31 14:00:00 32 5 Noroeste 17 Norte 0 -- -- 27
2017-07-31 13:00:00 30.4 4 Noroeste 15 Noroeste 0 -- -- 27
2017-07-31 12:00:00 29.1 5 Norte 13 Oeste 0 -- -- 26
2017-07-31 11:00:00 26.9 4 Sudoeste 11 Sur 0 -- -- 32
2017-07-31 10:00:00 23.7 4 Sudoeste 6 Sudoeste 0 -- -- 41
2017-07-31 09:00:00 21.5 0 Calma 4 Norte 0 -- -- 46
2017-07-31 08:00:00 19.9 0 Calma 6 Oeste 0 -- -- 50
2017-07-31 07:00:00 20.1 3 Norte 8 Norte 0 -- -- 49
2017-07-31 06:00:00 21.4 3 Norte 18 Oeste 0 -- -- 44
2017-07-31 05:00:00 22.2 4 Oeste 14 Noroeste 0 -- -- 43
2017-07-31 04:00:00 23.4 3 Noroeste 22 Noroeste 0 -- -- 39
2017-07-31 03:00:00 24.6 5 Noroeste 22 Oeste 0 -- -- 36
2017-07-31 02:00:00 26 6 Noroeste 22 Oeste 0 -- -- 33
2017-07-31 01:00:00 27.8 5 Noroeste 29 Oeste 0 -- -- 30
2017-07-31 00:00:00 29.5 6 Noroeste 19 Noroeste 0 -- -- 26
2017-07-30 23:00:00 30.6 3 Noroeste 10 Oeste 0 -- -- 23
2017-07-30 22:00:00 31.9 4 Noroeste 18 Oeste 0 -- -- 21
2017-07-30 21:00:00 33.9 6 Noroeste 21 Oeste 0 -- -- 20
2017-07-30 20:00:00 35.2 5 Noroeste 23 Oeste 0 -- -- 20
2017-07-30 19:00:00 36.5 7 Noroeste 26 Noroeste 0 -- -- 19
2017-07-30 18:00:00 36.6 9 Norte 26 Norte 0 -- -- 19
2017-07-30 17:00:00 38 6 Noroeste 24 Nordeste 0 -- -- 19
2017-07-30 16:00:00 37.1 6 Noroeste 26 Noroeste 0 -- -- 20
2017-07-30 15:00:00 36.5 6 Noroeste 26 Oeste 0 -- -- 22
2017-07-30 14:00:00 36 7 Noroeste 20 Norte 0 -- -- 22
2017-07-30 13:00:00 35.2 4 Norte 13 Sudoeste 0 -- -- 24
2017-07-30 12:00:00 32.6 5 Sur 12 Sudoeste 0 -- -- 31
2017-07-30 11:00:00 29.4 4 Oeste 12 Noroeste 0 -- -- 36
2017-07-30 10:00:00 27.5 2 Noroeste 6 Oeste 0 -- -- 40
2017-07-30 09:00:00 24.7 0 Calma 5 Sur 0 -- -- 44
2017-07-30 08:00:00 23.5 0 Calma 3 Norte 0 -- -- 46
2017-07-30 07:00:00 24.3 0 Calma 8 Sudoeste 0 -- -- 45
2017-07-30 06:00:00 24.8 0 Calma 8 Norte 0 -- -- 43
2017-07-30 05:00:00 25.7 3 Noroeste 12 Norte 0 -- -- 41
2017-07-30 04:00:00 26.4 3 Norte 17 Oeste 0 -- -- 37
2017-07-30 03:00:00 27.8 4 Noroeste 16 Oeste 0 -- -- 32
2017-07-30 02:00:00 29.1 4 Noroeste 13 Noroeste 0 -- -- 30
2017-07-30 01:00:00 29.8 3 Noroeste 12 Noroeste 0 -- -- 28
2017-07-30 00:00:00 30.3 0 Calma 5 Sudoeste 0 -- -- 32
2017-07-29 23:00:00 31.5 3 Noroeste 9 Oeste 0 -- -- 29
2017-07-29 22:00:00 32.4 0 Calma 10 Oeste 0 -- -- 25
2017-07-29 21:00:00 34.6 5 Noroeste 15 Oeste 0 -- -- 21
2017-07-29 20:00:00 35.4 5 Noroeste 17 Noroeste 0 -- -- 20
2017-07-29 19:00:00 36.1 7 Noroeste 23 Noroeste 0 -- -- 19
2017-07-29 18:00:00 36.5 6 Noroeste 20 Oeste 0 -- -- 20
2017-07-29 17:00:00 36.9 5 Noroeste 22 Noroeste 0 -- -- 22
2017-07-29 16:00:00 37 7 Noroeste 22 Noroeste 0 -- -- 20
2017-07-29 15:00:00 35.9 7 Oeste 24 Oeste 0 -- -- 24
2017-07-29 14:00:00 34.1 6 Noroeste 20 Noroeste 0 -- -- 25
2017-07-29 13:00:00 33.6 5 Oeste 16 Oeste 0 -- -- 27
2017-07-29 12:00:00 31.7 4 Noroeste 13 Sur 0 -- -- 30
2017-07-29 11:00:00 29.3 7 Sudoeste 13 Sudoeste 0 -- -- 32
2017-07-29 10:00:00 26 3 Sur 6 Sur 0 -- -- 36
2017-07-29 09:00:00 23.3 0 Calma 5 Noroeste 0 -- -- 42
2017-07-29 08:00:00 22 0 Calma 4 Norte 0 -- -- 44
2017-07-29 07:00:00 22.9 0 Calma 5 Norte 0 -- -- 43
2017-07-29 06:00:00 24.2 0 Calma 5 Oeste 0 -- -- 40
2017-07-29 05:00:00 25.1 0 Calma 8 Oeste 0 -- -- 38
2017-07-29 04:00:00 25.5 2 Noroeste 9 Noroeste 0 -- -- 33
2017-07-29 03:00:00 26.7 3 Norte 10 Noroeste 0 -- -- 30
2017-07-29 02:00:00 28.2 3 Noroeste 14 Noroeste 0 -- -- 27
2017-07-29 01:00:00 29.5 2 Oeste 14 Oeste 0 -- -- 23
2017-07-29 00:00:00 30.5 3 Noroeste 10 Norte 0 -- -- 20
2017-07-28 23:00:00 31.3 3 Noroeste 8 Noroeste 0 -- -- 19
2017-07-28 22:00:00 32.6 2 Noroeste 12 Noroeste 0 -- -- 15
2017-07-28 21:00:00 35.6 3 Noroeste 20 Oeste 0 -- -- 14
2017-07-28 20:00:00 35.8 8 Noroeste 26 Oeste 0 -- -- 14
2017-07-28 19:00:00 36.8 10 Noroeste 25 Oeste 0 -- -- 17
2017-07-28 18:00:00 37.7 6 Noroeste 26 Noroeste 0 -- -- 17
2017-07-28 17:00:00 38.1 5 Noroeste 30 Oeste 0 -- -- 17
2017-07-28 16:00:00 37.9 9 Oeste 23 Noroeste 0 -- -- 18
2017-07-28 15:00:00 37.1 5 Noroeste 23 Noroeste 0 -- -- 19
2017-07-28 14:00:00 36.1 6 Oeste 18 Oeste 0 -- -- 20
2017-07-28 13:00:00 33.8 5 Noroeste 13 Sudoeste 0 -- -- 24
2017-07-28 12:00:00 31.4 2 Nordeste 9 Oeste 0 -- -- 32
2017-07-28 11:00:00 28.9 4 Sudoeste 10 Sur 0 -- -- 38
2017-07-28 10:00:00 25.5 4 Sur 8 Sur 0 -- -- 45
2017-07-28 09:00:00 24 0 Calma 5 Oeste 0 -- -- 50
2017-07-28 08:00:00 22.9 0 Calma 6 Noroeste 0 -- -- 51
2017-07-28 07:00:00 23.6 3 Norte 7 Norte 0 -- -- 47
2017-07-28 06:00:00 24.7 3 Norte 17 Noroeste 0 -- -- 43
2017-07-28 05:00:00 25.4 3 Norte 13 Noroeste 0 -- -- 40
2017-07-28 04:00:00 26.4 4 Noroeste 15 Noroeste 0 -- -- 35
2017-07-28 03:00:00 27.3 5 Norte 18 Oeste 0 -- -- 30
2017-07-28 02:00:00 29 3 Noroeste 11 Oeste 0 -- -- 25
2017-07-28 01:00:00 29.9 3 Noroeste 9 Oeste 0 -- -- 25
2017-07-28 00:00:00 30.9 3 Norte 7 Oeste 0 -- -- 26
2017-07-27 23:00:00 31.7 4 Noroeste 12 Oeste 0 -- -- 25
2017-07-27 22:00:00 32.7 2 Noroeste 12 Norte 0 -- -- 24
2017-07-27 21:00:00 34.8 4 Noroeste 17 Oeste 0 -- -- 22
2017-07-27 20:00:00 35.9 8 Noroeste 19 Oeste 0 -- -- 22
2017-07-27 19:00:00 37.5 6 Noroeste 24 Oeste 0 -- -- 20
2017-07-27 18:00:00 38.2 7 Noroeste 35 Sudoeste 0 -- -- 18
2017-07-27 17:00:00 38.5 5 Noroeste 26 Sur 0 -- -- 18
2017-07-27 16:00:00 38.2 8 Noroeste 31 Oeste 0 -- -- 18
2017-07-27 15:00:00 37.7 6 Sudoeste 24 Sudoeste 0 -- -- 19
2017-07-27 14:00:00 36.6 8 Oeste 21 Sur 0 -- -- 20
2017-07-27 13:00:00 35.2 12 Sudoeste 18 Sur 0 -- -- 24
2017-07-27 12:00:00 32.6 12 Sudoeste 21 Sudoeste 0 -- -- 30
2017-07-27 11:00:00 29.1 11 Sur 19 Sur 0 -- -- 37
2017-07-27 10:00:00 25.8 12 Sur 18 Sudoeste 0 -- -- 43
2017-07-27 09:00:00 24.2 7 Sur 14 Sur 0 -- -- 46
2017-07-27 08:00:00 23.2 10 Sur 13 Sudoeste 0 -- -- 48
2017-07-27 07:00:00 24.1 8 Sur 15 Sur 0 -- -- 45
2017-07-27 06:00:00 25 7 Sur 16 Sur 0 -- -- 44
2017-07-27 05:00:00 25.6 10 Sur 16 Sur 0 -- -- 44
2017-07-27 04:00:00 26.7 3 Sudoeste 10 Sur 0 -- -- 44
2017-07-27 03:00:00 26.9 3 Sudoeste 12 Sur 0 -- -- 42
2017-07-27 02:00:00 28.1 3 Sudoeste 10 Sudoeste 0 -- -- 39
2017-07-27 01:00:00 28.6 6 Sudoeste 22 Sudoeste 0 -- -- 37
2017-07-27 00:00:00 29.1 13 Sur 23 Sudoeste 0 -- -- 24
2017-07-26 23:00:00 31.2 0 Calma 9 Oeste 0 -- -- 21
2017-07-26 22:00:00 32.7 2 Noroeste 8 Noroeste 0 -- -- 19
2017-07-26 21:00:00 35.2 4 Noroeste 15 Oeste 0 -- -- 18
2017-07-26 20:00:00 36.2 3 Noroeste 15 Oeste 0 -- -- 18
2017-07-26 19:00:00 37.1 6 Noroeste 20 Sudoeste 0 -- -- 18
2017-07-26 18:00:00 37.9 5 Noroeste 18 Noroeste 0 -- -- 17
2017-07-26 17:00:00 37.7 6 Sur 22 Norte 0 -- -- 18
2017-07-26 16:00:00 36.2 6 Noroeste 18 Norte 0 -- -- 19
2017-07-26 15:00:00 35.3 4 Noroeste 16 Norte 0 -- -- 20
2017-07-26 14:00:00 34.5 6 Norte 19 Sur 0 -- -- 21
2017-07-26 13:00:00 33.1 6 Este 17 Este 0 -- -- 23
2017-07-26 12:00:00 32 6 Sudeste 16 Sudeste 0 -- -- 27
2017-07-26 11:00:00 29.6 5 Sudeste 19 Nordeste 0 -- -- 35
2017-07-26 10:00:00 26.2 6 Este 20 Este 0 -- -- 38
2017-07-26 09:00:00 23.5 3 Este 13 Este 0 -- -- 39
2017-07-26 08:00:00 21.7 4 Este 11 Sur 0 -- -- 36
2017-07-26 07:00:00 22 4 Nordeste 8 Este 0 -- -- 32
2017-07-26 06:00:00 22.4 2 Oeste 4 Noroeste 0 -- -- 31
2017-07-26 05:00:00 24 3 Este 14 Este 0 -- -- 29
2017-07-26 04:00:00 25.2 7 Este 15 Nordeste 0 -- -- 27
2017-07-26 03:00:00 25.6 4 Este 13 Nordeste 0 -- -- 27
2017-07-26 02:00:00 26.7 6 Este 22 Este 0 -- -- 26
2017-07-26 01:00:00 27.8 8 Nordeste 13 Nordeste 0 -- -- 24
2017-07-26 00:00:00 28.6 4 Nordeste 13 Este 0 -- -- 25
2017-07-25 23:00:00 29.7 5 Norte 14 Norte 0 -- -- 25
2017-07-25 22:00:00 31.2 3 Noroeste 17 Oeste 0 -- -- 24
2017-07-25 21:00:00 33.6 5 Noroeste 23 Oeste 0 -- -- 22
2017-07-25 20:00:00 34.6 5 Noroeste 23 Oeste 0 -- -- 21
2017-07-25 19:00:00 35.8 9 Oeste 23 Oeste 0 -- -- 19
2017-07-25 18:00:00 36.1 5 Noroeste 22 Norte 0 -- -- 20
2017-07-25 17:00:00 36.8 4 Noroeste 20 Norte 0 -- -- 20
2017-07-25 16:00:00 35.7 6 Oeste 21 Oeste 0 -- -- 21
2017-07-25 15:00:00 34.8 5 Oeste 20 Nordeste 0 -- -- 23
2017-07-25 14:00:00 33.3 4 Norte 19 Este 0 -- -- 25
2017-07-25 13:00:00 32.2 7 Nordeste 22 Nordeste 0 -- -- 27
2017-07-25 12:00:00 30.9 9 Este 23 Nordeste 0 -- -- 30
2017-07-25 11:00:00 29 10 Este 23 Nordeste 0 -- -- 36
2017-07-25 10:00:00 26.8 6 Este 17 Este 0 -- -- 42
2017-07-25 09:00:00 24.7 5 Este 22 Nordeste 0 -- -- 47
2017-07-25 08:00:00 23 12 Este 23 Este 0 -- -- 50
2017-07-25 07:00:00 23.4 4 Este 17 Este 0 -- -- 40
2017-07-25 06:00:00 24.5 6 Este 13 Este 0 -- -- 34
2017-07-25 05:00:00 24.6 2 Este 10 Este 0 -- -- 32
2017-07-25 04:00:00 25.4 5 Nordeste 13 Nordeste 0 -- -- 31
2017-07-25 03:00:00 26.1 8 Nordeste 22 Nordeste 0 -- -- 30
2017-07-25 02:00:00 26.6 4 Nordeste 7 Nordeste 0 -- -- 31
2017-07-25 01:00:00 27.6 3 Norte 8 Oeste 0 -- -- 33
2017-07-25 00:00:00 29 3 Noroeste 13 Oeste 0 -- -- 30
2017-07-24 23:00:00 30 3 Noroeste 23 Oeste 0 -- -- 28
2017-07-24 22:00:00 31.2 8 Oeste 23 Norte 0 -- -- 26
2017-07-24 21:00:00 33 8 Oeste 21 Oeste 0 -- -- 25
2017-07-24 20:00:00 33.5 8 Oeste 23 Oeste 0 -- -- 26
2017-07-24 19:00:00 34.8 11 Oeste 22 Oeste 0 -- -- 25
2017-07-24 18:00:00 35 5 Noroeste 19 Oeste 0 -- -- 23
2017-07-24 17:00:00 34.7 7 Noroeste 28 Oeste 0 -- -- 20
2017-07-24 16:00:00 33.7 10 Oeste 23 Oeste 0 -- -- 19
2017-07-24 15:00:00 32.3 6 Noroeste 21 Norte 0 -- -- 25
2017-07-24 14:00:00 32 9 Oeste 21 Norte 0 -- -- 26
2017-07-24 13:00:00 30.6 7 Oeste 18 Oeste 0 -- -- 32
2017-07-24 12:00:00 28.1 6 Oeste 16 Oeste 0 -- -- 41
2017-07-24 11:00:00 26 4 Noroeste 10 Norte 0 -- -- 45
2017-07-24 10:00:00 24 6 Oeste 16 Noroeste 0 -- -- 51
2017-07-24 09:00:00 23.1 3 Oeste 9 Oeste 0 -- -- 53
2017-07-24 08:00:00 21.7 3 Oeste 13 Noroeste 0 -- -- 54
2017-07-24 07:00:00 22.1 2 Noroeste 12 Oeste 0 -- -- 51
2017-07-24 06:00:00 22.7 3 Noroeste 10 Norte 0 -- -- 47
2017-07-24 05:00:00 23.6 2 Nordeste 14 Noroeste 0 -- -- 41
2017-07-24 04:00:00 24.5 3 Noroeste 12 Oeste 0 -- -- 38
2017-07-24 03:00:00 25.6 2 Noroeste 17 Noroeste 0 -- -- 37
2017-07-24 02:00:00 26.6 6 Noroeste 13 Noroeste 0 -- -- 36
2017-07-24 01:00:00 27 0 Calma 10 Sudoeste 0 -- -- 33
2017-07-24 00:00:00 28.1 2 Noroeste 9 Oeste 0 -- -- 31
2017-07-23 23:00:00 29.1 3 Noroeste 10 Noroeste 0 -- -- 28
2017-07-23 22:00:00 30.2 3 Noroeste 18 Noroeste 0 -- -- 25
2017-07-23 21:00:00 32.4 6 Oeste 18 Noroeste 0 -- -- 20
2017-07-23 20:00:00 33.2 7 Noroeste 25 Noroeste 0 -- -- 16
2017-07-23 19:00:00 34.8 7 Oeste 24 Noroeste 0 -- -- 17
2017-07-23 18:00:00 35 7 Oeste 24 Oeste 0 -- -- 18
2017-07-23 17:00:00 34.6 9 Noroeste 31 Oeste 0 -- -- 19
2017-07-23 16:00:00 34.9 5 Noroeste 20 Sudoeste 0 -- -- 16
2017-07-23 15:00:00 33.6 5 Noroeste 15 Oeste 0 -- -- 15
2017-07-23 14:00:00 31.9 6 Oeste 17 Oeste 0 -- -- 23
2017-07-23 13:00:00 30.9 5 Noroeste 16 Oeste 0 -- -- 28
2017-07-23 12:00:00 29.7 4 Noroeste 14 Sudoeste 0 -- -- 33
2017-07-23 11:00:00 26.4 6 Sur 15 Sur 0 -- -- 41
2017-07-23 10:00:00 23.3 6 Sur 9 Sur 0 -- -- 50
2017-07-23 09:00:00 21.5 2 Noroeste 10 Noroeste 0 -- -- 56
2017-07-23 08:00:00 20.1 0 Calma 4 Sudoeste 0 -- -- 59
2017-07-23 07:00:00 20.4 0 Calma 6 Noroeste 0 -- -- 57
2017-07-23 06:00:00 21.2 3 Norte 7 Oeste 0 -- -- 54
2017-07-23 05:00:00 22.1 2 Noroeste 10 Oeste 0 -- -- 49
2017-07-23 04:00:00 23 3 Noroeste 11 Oeste 0 -- -- 42
2017-07-23 03:00:00 23.7 0 Calma 5 Oeste 0 -- -- 36
2017-07-23 02:00:00 24.7 0 Calma 4 Sudoeste 0 -- -- 33
2017-07-23 01:00:00 25.7 0 Calma 14 Oeste 0 -- -- 29
2017-07-23 00:00:00 26 0 Calma 4 Norte 0 -- -- 26